<?xml version="1.0" encoding="UTF-8" standalone="no" ?>
<gpx xmlns="http://www.topografix.com/GPX/1/1" xmlns:xsi="http://www.w3.org/2001/XMLSchema-instance" xsi:schemaLocation="http://www.topografix.com/GPX/1/1 http://www.topografix.com/GPX/1/1/gpx.xsd" version="1.1" creator="VisuGPX - https://www.visugpx.com">
  <metadata>
    <name>Cascade des anglais</name>
    <desc><![CDATA[
ballade de 2*30 minutes pour arriver au niveau d'une cascade. 
Site trop fréquenté a mon gout, mais de nombreuses cuvettes permettent de se tremper, se qui permet un peu de tranquillité. Ne pas hésiter a monter un peu au dessus de la cascade ( comme sur la trace) pour retrouver un peu de calme.]]></desc>
  </metadata>
  <trk>
    <name><![CDATA[Cascade des anglais]]></name>
    <desc><![CDATA[Collier de vizzavone]]></desc>
    <extensions>
      <line xmlns="http://www.topografix.com/GPX/gpx_style/0/2">
        <color>0000FF</color>
        <width>4</width>
      </line>
    </extensions>
    <trkseg>
      <trkpt lat="42.11511" lon="9.12268">
        <ele>1115.786133</ele>
        <time>2021-07-06T11:18:30.513Z</time>
      </trkpt>
      <trkpt lat="42.11509" lon="9.12253">
        <ele>1115.743774</ele>
        <time>2021-07-06T11:18:40.121Z</time>
      </trkpt>
      <trkpt lat="42.11496" lon="9.1222">
        <ele>1115.831909</ele>
        <time>2021-07-06T11:19:06.339Z</time>
      </trkpt>
      <trkpt lat="42.11488" lon="9.12202">
        <ele>1115.905884</ele>
        <time>2021-07-06T11:19:22.342Z</time>
      </trkpt>
      <trkpt lat="42.11481" lon="9.12191">
        <ele>1116.022095</ele>
        <time>2021-07-06T11:19:27.375Z</time>
      </trkpt>
      <trkpt lat="42.11479" lon="9.12184">
        <ele>1116.13501</ele>
        <time>2021-07-06T11:19:32.692Z</time>
      </trkpt>
      <trkpt lat="42.11514" lon="9.12163">
        <ele>1116.331787</ele>
        <time>2021-07-06T11:20:20.314Z</time>
      </trkpt>
      <trkpt lat="42.11522" lon="9.12161">
        <ele>1116.336304</ele>
        <time>2021-07-06T11:20:25.421Z</time>
      </trkpt>
      <trkpt lat="42.11528" lon="9.12162">
        <ele>1116.396362</ele>
        <time>2021-07-06T11:20:30.551Z</time>
      </trkpt>
      <trkpt lat="42.11549" lon="9.12162">
        <ele>1116.296875</ele>
        <time>2021-07-06T11:20:50.087Z</time>
      </trkpt>
      <trkpt lat="42.11567" lon="9.12145">
        <ele>1116.342896</ele>
        <time>2021-07-06T11:21:13.366Z</time>
      </trkpt>
      <trkpt lat="42.11575" lon="9.12132">
        <ele>1116.341553</ele>
        <time>2021-07-06T11:21:18.491Z</time>
      </trkpt>
      <trkpt lat="42.1158" lon="9.12126">
        <ele>1111.270752</ele>
        <time>2021-07-06T11:21:23.706Z</time>
      </trkpt>
      <trkpt lat="42.11584" lon="9.12115">
        <ele>1112.617798</ele>
        <time>2021-07-06T11:21:29.678Z</time>
      </trkpt>
      <trkpt lat="42.11587" lon="9.12103">
        <ele>1112.368164</ele>
        <time>2021-07-06T11:21:47.236Z</time>
      </trkpt>
      <trkpt lat="42.11593" lon="9.12089">
        <ele>1110.463013</ele>
        <time>2021-07-06T11:21:52.546Z</time>
      </trkpt>
      <trkpt lat="42.11598" lon="9.12076">
        <ele>1112.258911</ele>
        <time>2021-07-06T11:21:58.269Z</time>
      </trkpt>
      <trkpt lat="42.11602" lon="9.12069">
        <ele>1112.531006</ele>
        <time>2021-07-06T11:22:03.702Z</time>
      </trkpt>
      <trkpt lat="42.11605" lon="9.1206">
        <ele>1111.567871</ele>
        <time>2021-07-06T11:22:08.715Z</time>
      </trkpt>
      <trkpt lat="42.11603" lon="9.12047">
        <ele>1110.496582</ele>
        <time>2021-07-06T11:22:25.449Z</time>
      </trkpt>
      <trkpt lat="42.11602" lon="9.12031">
        <ele>1107.004272</ele>
        <time>2021-07-06T11:22:35.696Z</time>
      </trkpt>
      <trkpt lat="42.11602" lon="9.12009">
        <ele>1109.27832</ele>
        <time>2021-07-06T11:22:48.412Z</time>
      </trkpt>
      <trkpt lat="42.11605" lon="9.11996">
        <ele>1108.839355</ele>
        <time>2021-07-06T11:22:53.722Z</time>
      </trkpt>
      <trkpt lat="42.11611" lon="9.11992">
        <ele>1106.831909</ele>
        <time>2021-07-06T11:22:59.637Z</time>
      </trkpt>
      <trkpt lat="42.1162" lon="9.11974">
        <ele>1106.468384</ele>
        <time>2021-07-06T11:23:15.657Z</time>
      </trkpt>
      <trkpt lat="42.1162" lon="9.11965">
        <ele>1102.828369</ele>
        <time>2021-07-06T11:23:20.677Z</time>
      </trkpt>
      <trkpt lat="42.11617" lon="9.11956">
        <ele>1102.992432</ele>
        <time>2021-07-06T11:23:25.679Z</time>
      </trkpt>
      <trkpt lat="42.11612" lon="9.11946">
        <ele>1100.884033</ele>
        <time>2021-07-06T11:23:31.702Z</time>
      </trkpt>
      <trkpt lat="42.11607" lon="9.11939">
        <ele>1103.702881</ele>
        <time>2021-07-06T11:23:37.461Z</time>
      </trkpt>
      <trkpt lat="42.11604" lon="9.11932">
        <ele>1102.917236</ele>
        <time>2021-07-06T11:23:42.525Z</time>
      </trkpt>
      <trkpt lat="42.11603" lon="9.11925">
        <ele>1099.241577</ele>
        <time>2021-07-06T11:23:47.679Z</time>
      </trkpt>
      <trkpt lat="42.11603" lon="9.11917">
        <ele>1098.777466</ele>
        <time>2021-07-06T11:23:52.681Z</time>
      </trkpt>
      <trkpt lat="42.116" lon="9.11908">
        <ele>1097.632202</ele>
        <time>2021-07-06T11:23:58.334Z</time>
      </trkpt>
      <trkpt lat="42.11597" lon="9.11896">
        <ele>1097.91272</ele>
        <time>2021-07-06T11:24:09.684Z</time>
      </trkpt>
      <trkpt lat="42.11594" lon="9.11885">
        <ele>1095.1427</ele>
        <time>2021-07-06T11:24:15.711Z</time>
      </trkpt>
      <trkpt lat="42.11592" lon="9.11878">
        <ele>1095.609741</ele>
        <time>2021-07-06T11:24:28.137Z</time>
      </trkpt>
      <trkpt lat="42.11587" lon="9.11845">
        <ele>1089.56543</ele>
        <time>2021-07-06T11:24:48.693Z</time>
      </trkpt>
      <trkpt lat="42.11583" lon="9.11835">
        <ele>1087.147095</ele>
        <time>2021-07-06T11:24:54.701Z</time>
      </trkpt>
      <trkpt lat="42.11581" lon="9.11827">
        <ele>1087.143188</ele>
        <time>2021-07-06T11:25:00.424Z</time>
      </trkpt>
      <trkpt lat="42.11581" lon="9.11816">
        <ele>1085.449585</ele>
        <time>2021-07-06T11:25:05.698Z</time>
      </trkpt>
      <trkpt lat="42.1158" lon="9.11805">
        <ele>1087.835938</ele>
        <time>2021-07-06T11:25:11.688Z</time>
      </trkpt>
      <trkpt lat="42.11579" lon="9.11794">
        <ele>1082.645386</ele>
        <time>2021-07-06T11:25:16.808Z</time>
      </trkpt>
      <trkpt lat="42.11577" lon="9.11789">
        <ele>1083.662109</ele>
        <time>2021-07-06T11:25:21.909Z</time>
      </trkpt>
      <trkpt lat="42.11576" lon="9.11779">
        <ele>1083.149658</ele>
        <time>2021-07-06T11:25:27.351Z</time>
      </trkpt>
      <trkpt lat="42.11575" lon="9.11769">
        <ele>1084.358765</ele>
        <time>2021-07-06T11:25:32.507Z</time>
      </trkpt>
      <trkpt lat="42.11573" lon="9.11758">
        <ele>1083.985962</ele>
        <time>2021-07-06T11:25:40.698Z</time>
      </trkpt>
      <trkpt lat="42.11572" lon="9.11745">
        <ele>1082.570923</ele>
        <time>2021-07-06T11:25:48.327Z</time>
      </trkpt>
      <trkpt lat="42.1157" lon="9.11732">
        <ele>1082.193481</ele>
        <time>2021-07-06T11:25:53.619Z</time>
      </trkpt>
      <trkpt lat="42.11571" lon="9.1172">
        <ele>1081.844849</ele>
        <time>2021-07-06T11:25:59.328Z</time>
      </trkpt>
      <trkpt lat="42.11569" lon="9.11712">
        <ele>1082.82605</ele>
        <time>2021-07-06T11:26:04.683Z</time>
      </trkpt>
      <trkpt lat="42.11565" lon="9.11701">
        <ele>1084.862305</ele>
        <time>2021-07-06T11:26:10.613Z</time>
      </trkpt>
      <trkpt lat="42.11561" lon="9.11684">
        <ele>1079.965698</ele>
        <time>2021-07-06T11:26:20.710Z</time>
      </trkpt>
      <trkpt lat="42.11563" lon="9.11674">
        <ele>1082.024292</ele>
        <time>2021-07-06T11:26:26.418Z</time>
      </trkpt>
      <trkpt lat="42.11563" lon="9.11665">
        <ele>1080.83313</ele>
        <time>2021-07-06T11:26:32.101Z</time>
      </trkpt>
      <trkpt lat="42.11565" lon="9.11655">
        <ele>1080.931519</ele>
        <time>2021-07-06T11:26:37.713Z</time>
      </trkpt>
      <trkpt lat="42.11566" lon="9.11644">
        <ele>1082.314697</ele>
        <time>2021-07-06T11:26:43.524Z</time>
      </trkpt>
      <trkpt lat="42.11567" lon="9.11641">
        <ele>1083.026733</ele>
        <time>2021-07-06T11:26:48.678Z</time>
      </trkpt>
      <trkpt lat="42.11573" lon="9.11618">
        <ele>1081.515503</ele>
        <time>2021-07-06T11:27:14.717Z</time>
      </trkpt>
      <trkpt lat="42.11575" lon="9.11609">
        <ele>1080.893433</ele>
        <time>2021-07-06T11:27:20.014Z</time>
      </trkpt>
      <trkpt lat="42.11577" lon="9.11597">
        <ele>1079.521851</ele>
        <time>2021-07-06T11:27:25.367Z</time>
      </trkpt>
      <trkpt lat="42.11578" lon="9.11586">
        <ele>1081.509155</ele>
        <time>2021-07-06T11:27:31.080Z</time>
      </trkpt>
      <trkpt lat="42.1158" lon="9.11579">
        <ele>1083.572021</ele>
        <time>2021-07-06T11:27:36.109Z</time>
      </trkpt>
      <trkpt lat="42.11581" lon="9.11575">
        <ele>1080.482666</ele>
        <time>2021-07-06T11:27:41.524Z</time>
      </trkpt>
      <trkpt lat="42.11583" lon="9.11568">
        <ele>1079.743042</ele>
        <time>2021-07-06T11:27:46.678Z</time>
      </trkpt>
      <trkpt lat="42.11585" lon="9.11561">
        <ele>1083.64624</ele>
        <time>2021-07-06T11:27:51.688Z</time>
      </trkpt>
      <trkpt lat="42.11592" lon="9.11539">
        <ele>1083.943237</ele>
        <time>2021-07-06T11:28:14.701Z</time>
      </trkpt>
      <trkpt lat="42.11592" lon="9.11526">
        <ele>1086.816406</ele>
        <time>2021-07-06T11:28:20.612Z</time>
      </trkpt>
      <trkpt lat="42.1159" lon="9.1152">
        <ele>1086.085571</ele>
        <time>2021-07-06T11:28:26.801Z</time>
      </trkpt>
      <trkpt lat="42.11596" lon="9.11498">
        <ele>1084.241821</ele>
        <time>2021-07-06T11:28:43.031Z</time>
      </trkpt>
      <trkpt lat="42.11601" lon="9.11486">
        <ele>1085.166748</ele>
        <time>2021-07-06T11:28:48.343Z</time>
      </trkpt>
      <trkpt lat="42.11602" lon="9.11479">
        <ele>1084.744629</ele>
        <time>2021-07-06T11:28:53.695Z</time>
      </trkpt>
      <trkpt lat="42.11603" lon="9.1147">
        <ele>1091.878296</ele>
        <time>2021-07-06T11:28:59.120Z</time>
      </trkpt>
      <trkpt lat="42.11604" lon="9.11462">
        <ele>1085.01123</ele>
        <time>2021-07-06T11:29:04.500Z</time>
      </trkpt>
      <trkpt lat="42.11602" lon="9.11455">
        <ele>1083.558472</ele>
        <time>2021-07-06T11:29:09.606Z</time>
      </trkpt>
      <trkpt lat="42.11604" lon="9.11436">
        <ele>1088.520874</ele>
        <time>2021-07-06T11:29:30.680Z</time>
      </trkpt>
      <trkpt lat="42.11607" lon="9.11424">
        <ele>1087.784424</ele>
        <time>2021-07-06T11:29:37.487Z</time>
      </trkpt>
      <trkpt lat="42.11607" lon="9.11416">
        <ele>1090.105225</ele>
        <time>2021-07-06T11:29:43.268Z</time>
      </trkpt>
      <trkpt lat="42.11609" lon="9.11407">
        <ele>1085.269897</ele>
        <time>2021-07-06T11:29:48.673Z</time>
      </trkpt>
      <trkpt lat="42.11626" lon="9.11334">
        <ele>1087.641724</ele>
        <time>2021-07-06T11:30:40.331Z</time>
      </trkpt>
      <trkpt lat="42.1163" lon="9.11301">
        <ele>1092.919312</ele>
        <time>2021-07-06T11:30:55.691Z</time>
      </trkpt>
      <trkpt lat="42.11633" lon="9.11289">
        <ele>1090.93103</ele>
        <time>2021-07-06T11:31:03.248Z</time>
      </trkpt>
      <trkpt lat="42.11635" lon="9.11274">
        <ele>1091.447144</ele>
        <time>2021-07-06T11:31:08.716Z</time>
      </trkpt>
      <trkpt lat="42.11635" lon="9.11261">
        <ele>1090.279175</ele>
        <time>2021-07-06T11:31:13.998Z</time>
      </trkpt>
      <trkpt lat="42.11635" lon="9.1125">
        <ele>1090.457275</ele>
        <time>2021-07-06T11:31:19.462Z</time>
      </trkpt>
      <trkpt lat="42.11636" lon="9.11245">
        <ele>1090.424683</ele>
        <time>2021-07-06T11:31:24.687Z</time>
      </trkpt>
      <trkpt lat="42.11637" lon="9.11246">
        <ele>1090.131714</ele>
        <time>2021-07-06T11:31:40.690Z</time>
      </trkpt>
      <trkpt lat="42.11632" lon="9.11226">
        <ele>1089.210571</ele>
        <time>2021-07-06T11:37:24.377Z</time>
      </trkpt>
      <trkpt lat="42.11624" lon="9.11197">
        <ele>1088.883667</ele>
        <time>2021-07-06T11:37:50.943Z</time>
      </trkpt>
      <trkpt lat="42.11618" lon="9.11192">
        <ele>1091.509033</ele>
        <time>2021-07-06T11:37:56.364Z</time>
      </trkpt>
      <trkpt lat="42.11613" lon="9.11157">
        <ele>1090.298828</ele>
        <time>2021-07-06T11:38:34.366Z</time>
      </trkpt>
      <trkpt lat="42.11608" lon="9.1113">
        <ele>1091.601318</ele>
        <time>2021-07-06T11:39:13.331Z</time>
      </trkpt>
      <trkpt lat="42.11629" lon="9.111">
        <ele>1090.414185</ele>
        <time>2021-07-06T11:39:53.234Z</time>
      </trkpt>
      <trkpt lat="42.11639" lon="9.11065">
        <ele>1094.175293</ele>
        <time>2021-07-06T11:41:02.219Z</time>
      </trkpt>
      <trkpt lat="42.11643" lon="9.11051">
        <ele>1092.813721</ele>
        <time>2021-07-06T11:41:28.070Z</time>
      </trkpt>
      <trkpt lat="42.11685" lon="9.11003">
        <ele>1103.143555</ele>
        <time>2021-07-06T11:42:57.683Z</time>
      </trkpt>
      <trkpt lat="42.11699" lon="9.10998">
        <ele>1098.914673</ele>
        <time>2021-07-06T11:43:10.153Z</time>
      </trkpt>
      <trkpt lat="42.11713" lon="9.10987">
        <ele>1100.610352</ele>
        <time>2021-07-06T11:43:36.379Z</time>
      </trkpt>
      <trkpt lat="42.11731" lon="9.10923">
        <ele>1104.518433</ele>
        <time>2021-07-06T11:46:07.897Z</time>
      </trkpt>
      <trkpt lat="42.11741" lon="9.10913">
        <ele>1099.505371</ele>
        <time>2021-07-06T11:46:28.712Z</time>
      </trkpt>
      <trkpt lat="42.1175" lon="9.10903">
        <ele>1100.648193</ele>
        <time>2021-07-06T11:46:57.369Z</time>
      </trkpt>
      <trkpt lat="42.11773" lon="9.10887">
        <ele>1106.529053</ele>
        <time>2021-07-06T11:47:55.895Z</time>
      </trkpt>
      <trkpt lat="42.11812" lon="9.10886">
        <ele>1103.659058</ele>
        <time>2021-07-06T11:48:53.250Z</time>
      </trkpt>
      <trkpt lat="42.11818" lon="9.10897">
        <ele>1107.845825</ele>
        <time>2021-07-06T11:49:27.363Z</time>
      </trkpt>
      <trkpt lat="42.1188" lon="9.10838">
        <ele>1155.521729</ele>
        <time>2021-07-06T12:13:13.071Z</time>
      </trkpt>
      <trkpt lat="42.11859" lon="9.10837">
        <ele>1160.413574</ele>
        <time>2021-07-06T12:14:08.193Z</time>
      </trkpt>
      <trkpt lat="42.11855" lon="9.1084">
        <ele>1156.546753</ele>
        <time>2021-07-06T12:14:13.350Z</time>
      </trkpt>
      <trkpt lat="42.11844" lon="9.10843">
        <ele>1165.39856</ele>
        <time>2021-07-06T12:14:34.354Z</time>
      </trkpt>
      <trkpt lat="42.1183" lon="9.10842">
        <ele>1168.857544</ele>
        <time>2021-07-06T12:15:01.356Z</time>
      </trkpt>
      <trkpt lat="42.11825" lon="9.1084">
        <ele>1166.087158</ele>
        <time>2021-07-06T12:15:08.872Z</time>
      </trkpt>
      <trkpt lat="42.1182" lon="9.10839">
        <ele>1167.352173</ele>
        <time>2021-07-06T12:15:13.963Z</time>
      </trkpt>
      <trkpt lat="42.11817" lon="9.10841">
        <ele>1168.29834</ele>
        <time>2021-07-06T12:15:19.389Z</time>
      </trkpt>
      <trkpt lat="42.11814" lon="9.10847">
        <ele>1160.583008</ele>
        <time>2021-07-06T12:15:39.363Z</time>
      </trkpt>
      <trkpt lat="42.11812" lon="9.10849">
        <ele>1158.137451</ele>
        <time>2021-07-06T12:15:44.662Z</time>
      </trkpt>
      <trkpt lat="42.11806" lon="9.1085">
        <ele>1158.091064</ele>
        <time>2021-07-06T12:16:24.368Z</time>
      </trkpt>
      <trkpt lat="42.11804" lon="9.1086">
        <ele>1155.622925</ele>
        <time>2021-07-06T12:16:31.370Z</time>
      </trkpt>
      <trkpt lat="42.118" lon="9.10864">
        <ele>1158.251709</ele>
        <time>2021-07-06T12:16:39.140Z</time>
      </trkpt>
      <trkpt lat="42.11745" lon="9.10893">
        <ele>1160.07312</ele>
        <time>2021-07-06T12:18:29.362Z</time>
      </trkpt>
      <trkpt lat="42.11743" lon="9.10903">
        <ele>1155.983032</ele>
        <time>2021-07-06T12:18:39.360Z</time>
      </trkpt>
      <trkpt lat="42.11746" lon="9.10907">
        <ele>1155.260254</ele>
        <time>2021-07-06T12:18:45.957Z</time>
      </trkpt>
      <trkpt lat="42.11734" lon="9.10925">
        <ele>1149.024902</ele>
        <time>2021-07-06T12:19:28.866Z</time>
      </trkpt>
      <trkpt lat="42.11731" lon="9.10926">
        <ele>1151.560669</ele>
        <time>2021-07-06T12:19:34.361Z</time>
      </trkpt>
      <trkpt lat="42.11716" lon="9.10967">
        <ele>1134.1</ele>
        <time>2021-07-06T12:20:37.370Z</time>
      </trkpt>
      <trkpt lat="42.11658" lon="9.11037">
        <ele>1118.3</ele>
      </trkpt>
      <trkpt lat="42.116" lon="9.11128">
        <ele>1109.954712</ele>
        <time>2021-07-06T12:24:36.929Z</time>
      </trkpt>
      <trkpt lat="42.11601" lon="9.1114">
        <ele>1107.358154</ele>
        <time>2021-07-06T12:24:42.378Z</time>
      </trkpt>
      <trkpt lat="42.11618" lon="9.11187">
        <ele>1105.750366</ele>
        <time>2021-07-06T12:25:14.369Z</time>
      </trkpt>
      <trkpt lat="42.11624" lon="9.11202">
        <ele>1104.644165</ele>
        <time>2021-07-06T12:25:20.394Z</time>
      </trkpt>
      <trkpt lat="42.11628" lon="9.11207">
        <ele>1102.899658</ele>
        <time>2021-07-06T12:25:25.945Z</time>
      </trkpt>
      <trkpt lat="42.11626" lon="9.11216">
        <ele>1105.861206</ele>
        <time>2021-07-06T12:25:31.381Z</time>
      </trkpt>
      <trkpt lat="42.11633" lon="9.11233">
        <ele>1106.7</ele>
        <time>2021-07-06T12:25:36.381Z</time>
      </trkpt>
      <trkpt lat="42.11614" lon="9.11324">
        <ele>1106.8</ele>
      </trkpt>
      <trkpt lat="42.11597" lon="9.1139">
        <ele>1108.5</ele>
        <time>2021-07-06T12:28:06.367Z</time>
      </trkpt>
      <trkpt lat="42.11586" lon="9.1142">
        <ele>1110.5</ele>
        <time>2021-07-06T12:28:11.368Z</time>
      </trkpt>
      <trkpt lat="42.11586" lon="9.11475">
        <ele>1085.259521</ele>
        <time>2021-07-06T12:28:43.363Z</time>
      </trkpt>
      <trkpt lat="42.11584" lon="9.11486">
        <ele>1085.355225</ele>
        <time>2021-07-06T12:28:48.373Z</time>
      </trkpt>
      <trkpt lat="42.11582" lon="9.11492">
        <ele>1094.983032</ele>
        <time>2021-07-06T12:28:53.991Z</time>
      </trkpt>
      <trkpt lat="42.11572" lon="9.11533">
        <ele>1085.350952</ele>
        <time>2021-07-06T12:29:14.103Z</time>
      </trkpt>
      <trkpt lat="42.11574" lon="9.11546">
        <ele>1086.338745</ele>
        <time>2021-07-06T12:29:19.326Z</time>
      </trkpt>
      <trkpt lat="42.11573" lon="9.11561">
        <ele>1081.764404</ele>
        <time>2021-07-06T12:29:25.970Z</time>
      </trkpt>
      <trkpt lat="42.11571" lon="9.1157">
        <ele>1088.314087</ele>
        <time>2021-07-06T12:29:31.362Z</time>
      </trkpt>
      <trkpt lat="42.11568" lon="9.11578">
        <ele>1083.45752</ele>
        <time>2021-07-06T12:29:38.864Z</time>
      </trkpt>
      <trkpt lat="42.1156" lon="9.11593">
        <ele>1085.595947</ele>
        <time>2021-07-06T12:29:49.065Z</time>
      </trkpt>
      <trkpt lat="42.1156" lon="9.11603">
        <ele>1085.837524</ele>
        <time>2021-07-06T12:29:54.357Z</time>
      </trkpt>
      <trkpt lat="42.11559" lon="9.11613">
        <ele>1088.143433</ele>
        <time>2021-07-06T12:30:02.167Z</time>
      </trkpt>
      <trkpt lat="42.11558" lon="9.11623">
        <ele>1085.074951</ele>
        <time>2021-07-06T12:30:07.676Z</time>
      </trkpt>
      <trkpt lat="42.1156" lon="9.11633">
        <ele>1085.510498</ele>
        <time>2021-07-06T12:30:13.273Z</time>
      </trkpt>
      <trkpt lat="42.11572" lon="9.11684">
        <ele>1089.679321</ele>
        <time>2021-07-06T12:30:40.365Z</time>
      </trkpt>
      <trkpt lat="42.11572" lon="9.11698">
        <ele>1092.130859</ele>
        <time>2021-07-06T12:30:46.206Z</time>
      </trkpt>
      <trkpt lat="42.11572" lon="9.11707">
        <ele>1091.219116</ele>
        <time>2021-07-06T12:30:51.357Z</time>
      </trkpt>
      <trkpt lat="42.11571" lon="9.11713">
        <ele>1092.009521</ele>
        <time>2021-07-06T12:30:56.506Z</time>
      </trkpt>
      <trkpt lat="42.11569" lon="9.11719">
        <ele>1093.245728</ele>
        <time>2021-07-06T12:31:01.525Z</time>
      </trkpt>
      <trkpt lat="42.11569" lon="9.11741">
        <ele>1090.925903</ele>
        <time>2021-07-06T12:31:12.357Z</time>
      </trkpt>
      <trkpt lat="42.11573" lon="9.11756">
        <ele>1091.797119</ele>
        <time>2021-07-06T12:31:18.262Z</time>
      </trkpt>
      <trkpt lat="42.11573" lon="9.11768">
        <ele>1093.130859</ele>
        <time>2021-07-06T12:31:23.960Z</time>
      </trkpt>
      <trkpt lat="42.11575" lon="9.11775">
        <ele>1092.295044</ele>
        <time>2021-07-06T12:31:29.361Z</time>
      </trkpt>
      <trkpt lat="42.11575" lon="9.11782">
        <ele>1094.20459</ele>
        <time>2021-07-06T12:31:35.370Z</time>
      </trkpt>
      <trkpt lat="42.11577" lon="9.11792">
        <ele>1092.609863</ele>
        <time>2021-07-06T12:31:41.118Z</time>
      </trkpt>
      <trkpt lat="42.11582" lon="9.118">
        <ele>1091.628784</ele>
        <time>2021-07-06T12:31:46.351Z</time>
      </trkpt>
      <trkpt lat="42.11586" lon="9.11809">
        <ele>1092.244263</ele>
        <time>2021-07-06T12:31:52.329Z</time>
      </trkpt>
      <trkpt lat="42.11588" lon="9.11819">
        <ele>1092.23291</ele>
        <time>2021-07-06T12:31:57.382Z</time>
      </trkpt>
      <trkpt lat="42.11589" lon="9.11831">
        <ele>1093.59082</ele>
        <time>2021-07-06T12:32:03.101Z</time>
      </trkpt>
      <trkpt lat="42.11589" lon="9.11839">
        <ele>1092.710693</ele>
        <time>2021-07-06T12:32:08.156Z</time>
      </trkpt>
      <trkpt lat="42.11589" lon="9.11845">
        <ele>1093.72583</ele>
        <time>2021-07-06T12:32:13.352Z</time>
      </trkpt>
      <trkpt lat="42.11591" lon="9.1185">
        <ele>1090.996948</ele>
        <time>2021-07-06T12:32:18.847Z</time>
      </trkpt>
      <trkpt lat="42.11599" lon="9.11869">
        <ele>1090.014648</ele>
        <time>2021-07-06T12:32:34.361Z</time>
      </trkpt>
      <trkpt lat="42.11605" lon="9.11889">
        <ele>1092.757324</ele>
        <time>2021-07-06T12:32:43.972Z</time>
      </trkpt>
      <trkpt lat="42.11603" lon="9.11903">
        <ele>1090.710571</ele>
        <time>2021-07-06T12:32:49.344Z</time>
      </trkpt>
      <trkpt lat="42.11601" lon="9.11914">
        <ele>1095.698242</ele>
        <time>2021-07-06T12:32:55.377Z</time>
      </trkpt>
      <trkpt lat="42.11602" lon="9.11922">
        <ele>1091.988647</ele>
        <time>2021-07-06T12:33:00.978Z</time>
      </trkpt>
      <trkpt lat="42.11604" lon="9.1193">
        <ele>1092.465576</ele>
        <time>2021-07-06T12:33:06.361Z</time>
      </trkpt>
      <trkpt lat="42.11612" lon="9.1194">
        <ele>1096.363037</ele>
        <time>2021-07-06T12:33:11.390Z</time>
      </trkpt>
      <trkpt lat="42.11617" lon="9.11948">
        <ele>1094.925903</ele>
        <time>2021-07-06T12:33:16.578Z</time>
      </trkpt>
      <trkpt lat="42.11621" lon="9.11957">
        <ele>1095.805542</ele>
        <time>2021-07-06T12:33:21.942Z</time>
      </trkpt>
      <trkpt lat="42.11622" lon="9.11964">
        <ele>1096.898193</ele>
        <time>2021-07-06T12:33:27.348Z</time>
      </trkpt>
      <trkpt lat="42.11621" lon="9.1197">
        <ele>1097.341553</ele>
        <time>2021-07-06T12:33:32.362Z</time>
      </trkpt>
      <trkpt lat="42.11618" lon="9.11978">
        <ele>1095.170898</ele>
        <time>2021-07-06T12:33:37.889Z</time>
      </trkpt>
      <trkpt lat="42.1161" lon="9.11984">
        <ele>1097.643433</ele>
        <time>2021-07-06T12:33:43.215Z</time>
      </trkpt>
      <trkpt lat="42.11604" lon="9.1199">
        <ele>1100.725952</ele>
        <time>2021-07-06T12:33:48.357Z</time>
      </trkpt>
      <trkpt lat="42.11598" lon="9.11995">
        <ele>1101.936768</ele>
        <time>2021-07-06T12:33:53.372Z</time>
      </trkpt>
      <trkpt lat="42.11594" lon="9.12005">
        <ele>1103.323608</ele>
        <time>2021-07-06T12:33:59.037Z</time>
      </trkpt>
      <trkpt lat="42.11594" lon="9.12012">
        <ele>1101.599121</ele>
        <time>2021-07-06T12:34:04.138Z</time>
      </trkpt>
      <trkpt lat="42.11598" lon="9.1202">
        <ele>1102.738892</ele>
        <time>2021-07-06T12:34:09.766Z</time>
      </trkpt>
      <trkpt lat="42.11601" lon="9.12024">
        <ele>1101.633789</ele>
        <time>2021-07-06T12:34:15.367Z</time>
      </trkpt>
      <trkpt lat="42.11599" lon="9.12056">
        <ele>1106.986816</ele>
        <time>2021-07-06T12:34:36.776Z</time>
      </trkpt>
      <trkpt lat="42.11592" lon="9.12066">
        <ele>1105.810913</ele>
        <time>2021-07-06T12:34:42.139Z</time>
      </trkpt>
      <trkpt lat="42.11588" lon="9.12077">
        <ele>1106.413818</ele>
        <time>2021-07-06T12:34:49.040Z</time>
      </trkpt>
      <trkpt lat="42.11586" lon="9.12085">
        <ele>1108.727905</ele>
        <time>2021-07-06T12:34:57.361Z</time>
      </trkpt>
      <trkpt lat="42.11584" lon="9.12095">
        <ele>1110.473633</ele>
        <time>2021-07-06T12:35:02.391Z</time>
      </trkpt>
      <trkpt lat="42.11579" lon="9.12107">
        <ele>1108.957031</ele>
        <time>2021-07-06T12:35:07.696Z</time>
      </trkpt>
      <trkpt lat="42.11575" lon="9.12116">
        <ele>1106.893433</ele>
        <time>2021-07-06T12:35:12.730Z</time>
      </trkpt>
      <trkpt lat="42.11573" lon="9.12123">
        <ele>1111.06543</ele>
        <time>2021-07-06T12:35:17.846Z</time>
      </trkpt>
      <trkpt lat="42.11574" lon="9.1213">
        <ele>1110.052734</ele>
        <time>2021-07-06T12:35:23.362Z</time>
      </trkpt>
      <trkpt lat="42.11573" lon="9.1213">
        <ele>1111.966064</ele>
        <time>2021-07-06T12:35:28.378Z</time>
      </trkpt>
      <trkpt lat="42.11566" lon="9.12156">
        <ele>1114.856567</ele>
        <time>2021-07-06T12:35:44.366Z</time>
      </trkpt>
      <trkpt lat="42.11558" lon="9.12162">
        <ele>1117.735107</ele>
        <time>2021-07-06T12:35:50.366Z</time>
      </trkpt>
      <trkpt lat="42.1155" lon="9.1216">
        <ele>1117.375854</ele>
        <time>2021-07-06T12:35:56.363Z</time>
      </trkpt>
      <trkpt lat="42.11544" lon="9.12159">
        <ele>1117.429443</ele>
        <time>2021-07-06T12:36:01.390Z</time>
      </trkpt>
      <trkpt lat="42.11543" lon="9.12161">
        <ele>1117.412842</ele>
        <time>2021-07-06T12:36:06.908Z</time>
      </trkpt>
      <trkpt lat="42.1154" lon="9.12162">
        <ele>1117.452637</ele>
        <time>2021-07-06T12:36:12.099Z</time>
      </trkpt>
      <trkpt lat="42.11505" lon="9.12157">
        <ele>1117.355225</ele>
        <time>2021-07-06T12:36:48.923Z</time>
      </trkpt>
      <trkpt lat="42.115" lon="9.12161">
        <ele>1117.29187</ele>
        <time>2021-07-06T12:36:54.360Z</time>
      </trkpt>
      <trkpt lat="42.11495" lon="9.12182">
        <ele>1117.148682</ele>
        <time>2021-07-06T12:37:32.932Z</time>
      </trkpt>
    </trkseg>
  </trk>
</gpx>